sensor_id;sensor_type;location;lat;lon;timestamp;P1;durP1;ratioP1;P2;durP2;ratioP2
55465;SDS011;41329;41.594;23.810;2023-09-19T00:02:18;5.22;;;4.82;;
55465;SDS011;41329;41.594;23.810;2023-09-19T00:04:43;5.32;;;5.00;;
55465;SDS011;41329;41.594;23.810;2023-09-19T00:07:09;5.72;;;5.32;;
55465;SDS011;41329;41.594;23.810;2023-09-19T00:09:35;4.97;;;4.57;;
55465;SDS011;41329;41.594;23.810;2023-09-19T00:12:04;6.45;;;4.30;;
55465;SDS011;41329;41.594;23.810;2023-09-19T00:14:30;6.63;;;5.60;;
55465;SDS011;41329;41.594;23.810;2023-09-19T00:16:59;5.85;;;5.35;;
55465;SDS011;41329;41.594;23.810;2023-09-19T00:19:25;5.95;;;5.45;;
55465;SDS011;41329;41.594;23.810;2023-09-19T00:21:51;6.00;;;5.40;;
55465;SDS011;41329;41.594;23.810;2023-09-19T00:24:18;5.45;;;5.05;;
55465;SDS011;41329;41.594;23.810;2023-09-19T00:26:43;6.32;;;5.75;;
55465;SDS011;41329;41.594;23.810;2023-09-19T00:29:11;6.28;;;5.57;;
55465;SDS011;41329;41.594;23.810;2023-09-19T00:31:38;6.78;;;5.20;;
55465;SDS011;41329;41.594;23.810;2023-09-19T00:34:03;5.15;;;4.72;;
55465;SDS011;41329;41.594;23.810;2023-09-19T00:36:35;5.22;;;4.88;;
55465;SDS011;41329;41.594;23.810;2023-09-19T00:39:01;6.28;;;5.25;;
55465;SDS011;41329;41.594;23.810;2023-09-19T00:41:31;8.10;;;5.22;;
55465;SDS011;41329;41.594;23.810;2023-09-19T00:43:56;5.63;;;5.22;;
55465;SDS011;41329;41.594;23.810;2023-09-19T00:46:22;5.50;;;5.13;;
55465;SDS011;41329;41.594;23.810;2023-09-19T00:48:47;7.28;;;4.70;;
55465;SDS011;41329;41.594;23.810;2023-09-19T00:51:14;5.63;;;5.28;;
55465;SDS011;41329;41.594;23.810;2023-09-19T00:53:44;6.05;;;5.60;;
55465;SDS011;41329;41.594;23.810;2023-09-19T00:56:11;5.72;;;5.32;;
55465;SDS011;41329;41.594;23.810;2023-09-19T00:58:37;5.70;;;4.80;;
55465;SDS011;41329;41.594;23.810;2023-09-19T01:01:03;5.15;;;4.65;;
55465;SDS011;41329;41.594;23.810;2023-09-19T01:03:32;6.07;;;4.75;;
55465;SDS011;41329;41.594;23.810;2023-09-19T01:05:59;4.97;;;4.57;;
55465;SDS011;41329;41.594;23.810;2023-09-19T01:08:25;4.38;;;3.85;;
55465;SDS011;41329;41.594;23.810;2023-09-19T01:11:21;5.35;;;4.95;;
55465;SDS011;41329;41.594;23.810;2023-09-19T01:16:32;5.03;;;4.53;;
55465;SDS011;41329;41.594;23.810;2023-09-19T01:21:44;4.38;;;3.97;;
55465;SDS011;41329;41.594;23.810;2023-09-19T01:24:34;4.65;;;4.30;;
55465;SDS011;41329;41.594;23.810;2023-09-19T01:29:46;5.40;;;4.90;;
55465;SDS011;41329;41.594;23.810;2023-09-19T01:32:13;5.20;;;4.80;;
55465;SDS011;41329;41.594;23.810;2023-09-19T01:34:56;5.38;;;4.95;;
55465;SDS011;41329;41.594;23.810;2023-09-19T01:37:30;5.50;;;4.00;;
55465;SDS011;41329;41.594;23.810;2023-09-19T01:39:58;4.65;;;4.35;;
55465;SDS011;41329;41.594;23.810;2023-09-19T01:42:37;4.43;;;4.13;;
55465;SDS011;41329;41.594;23.810;2023-09-19T01:45:11;4.50;;;4.18;;
55465;SDS011;41329;41.594;23.810;2023-09-19T01:47:50;5.47;;;5.00;;
55465;SDS011;41329;41.594;23.810;2023-09-19T01:56:29;5.00;;;4.68;;
55465;SDS011;41329;41.594;23.810;2023-09-19T01:59:08;5.00;;;4.70;;
55465;SDS011;41329;41.594;23.810;2023-09-19T02:01:38;4.75;;;4.30;;
55465;SDS011;41329;41.594;23.810;2023-09-19T02:04:05;5.32;;;4.82;;
55465;SDS011;41329;41.594;23.810;2023-09-19T02:06:32;4.82;;;4.45;;
55465;SDS011;41329;41.594;23.810;2023-09-19T02:08:59;5.43;;;5.07;;
55465;SDS011;41329;41.594;23.810;2023-09-19T02:11:24;4.72;;;4.32;;
55465;SDS011;41329;41.594;23.810;2023-09-19T02:13:50;4.50;;;4.20;;
55465;SDS011;41329;41.594;23.810;2023-09-19T02:16:19;8.25;;;7.68;;
55465;SDS011;41329;41.594;23.810;2023-09-19T02:18:45;12.10;;;10.93;;
55465;SDS011;41329;41.594;23.810;2023-09-19T02:21:14;12.30;;;11.60;;
55465;SDS011;41329;41.594;23.810;2023-09-19T02:23:40;15.18;;;14.13;;
55465;SDS011;41329;41.594;23.810;2023-09-19T02:26:06;23.23;;;21.33;;
55465;SDS011;41329;41.594;23.810;2023-09-19T02:28:31;26.25;;;23.88;;
55465;SDS011;41329;41.594;23.810;2023-09-19T02:30:58;24.60;;;22.40;;
55465;SDS011;41329;41.594;23.810;2023-09-19T02:33:24;26.10;;;23.80;;
55465;SDS011;41329;41.594;23.810;2023-09-19T02:35:49;24.73;;;22.55;;
55465;SDS011;41329;41.594;23.810;2023-09-19T02:38:15;20.17;;;18.63;;
55465;SDS011;41329;41.594;23.810;2023-09-19T02:40:43;21.15;;;19.48;;
55465;SDS011;41329;41.594;23.810;2023-09-19T02:43:08;14.35;;;13.25;;
55465;SDS011;41329;41.594;23.810;2023-09-19T03:48:35;6.88;;;6.47;;
55465;SDS011;41329;41.594;23.810;2023-09-19T03:51:00;5.97;;;5.55;;
55465;SDS011;41329;41.594;23.810;2023-09-19T03:53:27;6.00;;;5.60;;
55465;SDS011;41329;41.594;23.810;2023-09-19T03:55:52;5.63;;;5.32;;
55465;SDS011;41329;41.594;23.810;2023-09-19T03:58:18;6.15;;;5.85;;
55465;SDS011;41329;41.594;23.810;2023-09-19T04:00:43;5.75;;;5.25;;
55465;SDS011;41329;41.594;23.810;2023-09-19T04:03:09;4.70;;;4.40;;
55465;SDS011;41329;41.594;23.810;2023-09-19T04:05:43;6.15;;;5.40;;
55465;SDS011;41329;41.594;23.810;2023-09-19T04:08:09;5.18;;;4.88;;
55465;SDS011;41329;41.594;23.810;2023-09-19T04:10:34;6.47;;;5.28;;
55465;SDS011;41329;41.594;23.810;2023-09-19T04:13:00;5.18;;;4.88;;
55465;SDS011;41329;41.594;23.810;2023-09-19T04:15:26;5.47;;;5.03;;
55465;SDS011;41329;41.594;23.810;2023-09-19T04:17:52;5.38;;;4.88;;
55465;SDS011;41329;41.594;23.810;2023-09-19T04:20:18;4.82;;;4.38;;
55465;SDS011;41329;41.594;23.810;2023-09-19T04:22:50;5.35;;;4.95;;
55465;SDS011;41329;41.594;23.810;2023-09-19T04:25:16;6.88;;;5.38;;
55465;SDS011;41329;41.594;23.810;2023-09-19T04:27:41;4.88;;;4.57;;
55465;SDS011;41329;41.594;23.810;2023-09-19T04:30:07;5.28;;;4.78;;
55465;SDS011;41329;41.594;23.810;2023-09-19T04:32:37;7.35;;;6.72;;
55465;SDS011;41329;41.594;23.810;2023-09-19T04:35:08;8.02;;;7.38;;
55465;SDS011;41329;41.594;23.810;2023-09-19T04:37:36;14.18;;;10.90;;
55465;SDS011;41329;41.594;23.810;2023-09-19T04:40:03;17.85;;;10.82;;
55465;SDS011;41329;41.594;23.810;2023-09-19T04:42:31;11.60;;;9.32;;
55465;SDS011;41329;41.594;23.810;2023-09-19T04:44:56;5.53;;;5.13;;
55465;SDS011;41329;41.594;23.810;2023-09-19T04:47:22;7.68;;;6.97;;
55465;SDS011;41329;41.594;23.810;2023-09-19T04:49:47;5.68;;;5.28;;
55465;SDS011;41329;41.594;23.810;2023-09-19T04:52:13;6.45;;;5.88;;
55465;SDS011;41329;41.594;23.810;2023-09-19T04:54:40;11.52;;;8.00;;
55465;SDS011;41329;41.594;23.810;2023-09-19T04:57:06;7.38;;;6.72;;
55465;SDS011;41329;41.594;23.810;2023-09-19T04:59:32;10.63;;;9.50;;
55465;SDS011;41329;41.594;23.810;2023-09-19T05:01:57;24.23;;;14.68;;
55465;SDS011;41329;41.594;23.810;2023-09-19T05:04:23;40.25;;;19.05;;
55465;SDS011;41329;41.594;23.810;2023-09-19T05:06:49;44.60;;;19.92;;
55465;SDS011;41329;41.594;23.810;2023-09-19T05:09:14;41.45;;;20.58;;
55465;SDS011;41329;41.594;23.810;2023-09-19T05:11:40;77.30;;;32.28;;
55465;SDS011;41329;41.594;23.810;2023-09-19T05:14:06;89.32;;;36.47;;
55465;SDS011;41329;41.594;23.810;2023-09-19T05:16:31;90.82;;;37.10;;
55465;SDS011;41329;41.594;23.810;2023-09-19T05:18:57;130.10;;;54.00;;
55465;SDS011;41329;41.594;23.810;2023-09-19T05:21:25;267.55;;;102.57;;
55465;SDS011;41329;41.594;23.810;2023-09-19T05:23:53;246.80;;;99.35;;
55465;SDS011;41329;41.594;23.810;2023-09-19T05:26:19;265.55;;;103.07;;
55465;SDS011;41329;41.594;23.810;2023-09-19T05:28:44;144.43;;;58.13;;
55465;SDS011;41329;41.594;23.810;2023-09-19T05:31:10;151.95;;;66.55;;
55465;SDS011;41329;41.594;23.810;2023-09-19T05:33:35;201.80;;;78.75;;
55465;SDS011;41329;41.594;23.810;2023-09-19T05:36:00;199.07;;;74.53;;
55465;SDS011;41329;41.594;23.810;2023-09-19T05:38:26;205.15;;;65.90;;
55465;SDS011;41329;41.594;23.810;2023-09-19T05:40:52;241.68;;;65.07;;
55465;SDS011;41329;41.594;23.810;2023-09-19T05:43:18;249.48;;;67.53;;
55465;SDS011;41329;41.594;23.810;2023-09-19T05:45:44;202.43;;;66.95;;
55465;SDS011;41329;41.594;23.810;2023-09-19T05:48:13;170.65;;;65.55;;
55465;SDS011;41329;41.594;23.810;2023-09-19T05:50:41;142.90;;;55.40;;
55465;SDS011;41329;41.594;23.810;2023-09-19T05:53:06;132.45;;;55.85;;
55465;SDS011;41329;41.594;23.810;2023-09-19T05:55:32;107.57;;;45.40;;
55465;SDS011;41329;41.594;23.810;2023-09-19T05:57:58;76.53;;;38.33;;
55465;SDS011;41329;41.594;23.810;2023-09-19T06:00:24;64.32;;;33.38;;
55465;SDS011;41329;41.594;23.810;2023-09-19T06:02:56;40.85;;;26.50;;
55465;SDS011;41329;41.594;23.810;2023-09-19T06:05:23;47.92;;;24.73;;
55465;SDS011;41329;41.594;23.810;2023-09-19T06:07:49;34.70;;;23.13;;
55465;SDS011;41329;41.594;23.810;2023-09-19T06:10:15;27.58;;;20.20;;
55465;SDS011;41329;41.594;23.810;2023-09-19T06:12:42;29.95;;;18.35;;
55465;SDS011;41329;41.594;23.810;2023-09-19T06:15:12;40.47;;;20.00;;
55465;SDS011;41329;41.594;23.810;2023-09-19T06:17:50;26.40;;;17.50;;
55465;SDS011;41329;41.594;23.810;2023-09-19T06:20:20;18.75;;;16.85;;
55465;SDS011;41329;41.594;23.810;2023-09-19T06:22:47;16.58;;;15.27;;
55465;SDS011;41329;41.594;23.810;2023-09-19T06:25:13;21.10;;;14.18;;
55465;SDS011;41329;41.594;23.810;2023-09-19T06:27:46;14.30;;;13.25;;
55465;SDS011;41329;41.594;23.810;2023-09-19T06:30:12;13.48;;;12.30;;
55465;SDS011;41329;41.594;23.810;2023-09-19T06:32:38;13.70;;;12.57;;
55465;SDS011;41329;41.594;23.810;2023-09-19T06:35:04;23.73;;;17.73;;
55465;SDS011;41329;41.594;23.810;2023-09-19T06:37:33;19.17;;;17.05;;
55465;SDS011;41329;41.594;23.810;2023-09-19T06:40:03;31.70;;;20.92;;
55465;SDS011;41329;41.594;23.810;2023-09-19T06:42:50;26.95;;;17.17;;
55465;SDS011;41329;41.594;23.810;2023-09-19T06:45:17;27.27;;;20.25;;
55465;SDS011;41329;41.594;23.810;2023-09-19T06:47:44;66.65;;;32.85;;
55465;SDS011;41329;41.594;23.810;2023-09-19T06:50:19;63.08;;;34.75;;
55465;SDS011;41329;41.594;23.810;2023-09-19T06:52:47;95.90;;;46.38;;
55465;SDS011;41329;41.594;23.810;2023-09-19T06:55:19;94.70;;;48.03;;
55465;SDS011;41329;41.594;23.810;2023-09-19T06:57:48;105.75;;;49.97;;
55465;SDS011;41329;41.594;23.810;2023-09-19T07:00:14;91.90;;;45.88;;
55465;SDS011;41329;41.594;23.810;2023-09-19T07:02:56;93.53;;;45.72;;
55465;SDS011;41329;41.594;23.810;2023-09-19T07:05:28;91.65;;;43.10;;
55465;SDS011;41329;41.594;23.810;2023-09-19T07:07:54;67.05;;;36.95;;
55465;SDS011;41329;41.594;23.810;2023-09-19T07:10:28;64.88;;;32.15;;
55465;SDS011;41329;41.594;23.810;2023-09-19T07:12:55;47.83;;;26.67;;
55465;SDS011;41329;41.594;23.810;2023-09-19T07:15:28;45.30;;;24.88;;
55465;SDS011;41329;41.594;23.810;2023-09-19T07:17:56;48.55;;;25.38;;
55465;SDS011;41329;41.594;23.810;2023-09-19T07:20:22;58.55;;;29.15;;
55465;SDS011;41329;41.594;23.810;2023-09-19T07:22:51;49.30;;;28.20;;
55465;SDS011;41329;41.594;23.810;2023-09-19T07:25:17;36.95;;;23.85;;
55465;SDS011;41329;41.594;23.810;2023-09-19T07:27:42;29.48;;;18.75;;
55465;SDS011;41329;41.594;23.810;2023-09-19T07:30:09;28.48;;;20.88;;
55465;SDS011;41329;41.594;23.810;2023-09-19T07:32:36;46.40;;;25.42;;
55465;SDS011;41329;41.594;23.810;2023-09-19T07:35:03;41.33;;;22.50;;
55465;SDS011;41329;41.594;23.810;2023-09-19T07:37:30;53.40;;;28.40;;
55465;SDS011;41329;41.594;23.810;2023-09-19T07:39:58;15.13;;;13.70;;
55465;SDS011;41329;41.594;23.810;2023-09-19T07:42:34;15.00;;;13.45;;
55465;SDS011;41329;41.594;23.810;2023-09-19T07:45:06;21.58;;;12.52;;
55465;SDS011;41329;41.594;23.810;2023-09-19T07:47:32;16.13;;;11.68;;
55465;SDS011;41329;41.594;23.810;2023-09-19T07:49:59;17.33;;;9.60;;
55465;SDS011;41329;41.594;23.810;2023-09-19T07:52:27;25.38;;;9.85;;
55465;SDS011;41329;41.594;23.810;2023-09-19T07:54:52;38.00;;;12.35;;
55465;SDS011;41329;41.594;23.810;2023-09-19T07:57:18;35.95;;;11.60;;
55465;SDS011;41329;41.594;23.810;2023-09-19T07:59:45;57.50;;;13.40;;
55465;SDS011;41329;41.594;23.810;2023-09-19T08:02:10;71.65;;;13.95;;
55465;SDS011;41329;41.594;23.810;2023-09-19T08:04:44;72.15;;;14.35;;
55465;SDS011;41329;41.594;23.810;2023-09-19T08:07:14;49.92;;;12.02;;
55465;SDS011;41329;41.594;23.810;2023-09-19T08:09:39;46.05;;;13.32;;
55465;SDS011;41329;41.594;23.810;2023-09-19T08:12:05;75.53;;;14.05;;
55465;SDS011;41329;41.594;23.810;2023-09-19T08:14:33;74.68;;;16.40;;
55465;SDS011;41329;41.594;23.810;2023-09-19T08:16:58;32.50;;;10.65;;
55465;SDS011;41329;41.594;23.810;2023-09-19T08:19:25;9.52;;;7.18;;
55465;SDS011;41329;41.594;23.810;2023-09-19T08:21:57;8.93;;;5.88;;
55465;SDS011;41329;41.594;23.810;2023-09-19T08:24:29;7.88;;;5.03;;
55465;SDS011;41329;41.594;23.810;2023-09-19T08:26:55;9.20;;;6.57;;
55465;SDS011;41329;41.594;23.810;2023-09-19T08:29:22;8.95;;;7.32;;
55465;SDS011;41329;41.594;23.810;2023-09-19T08:31:55;17.60;;;8.25;;
55465;SDS011;41329;41.594;23.810;2023-09-19T08:34:23;12.75;;;7.60;;
55465;SDS011;41329;41.594;23.810;2023-09-19T08:36:53;7.50;;;6.50;;
55465;SDS011;41329;41.594;23.810;2023-09-19T08:39:22;8.43;;;6.30;;
55465;SDS011;41329;41.594;23.810;2023-09-19T08:41:48;9.80;;;6.90;;
55465;SDS011;41329;41.594;23.810;2023-09-19T08:44:14;5.85;;;5.35;;
55465;SDS011;41329;41.594;23.810;2023-09-19T08:46:43;6.57;;;6.07;;
55465;SDS011;41329;41.594;23.810;2023-09-19T08:49:33;6.35;;;5.85;;
55465;SDS011;41329;41.594;23.810;2023-09-19T08:52:41;6.63;;;6.20;;
55465;SDS011;41329;41.594;23.810;2023-09-19T08:55:06;6.03;;;5.55;;
55465;SDS011;41329;41.594;23.810;2023-09-19T08:57:35;6.25;;;5.75;;
55465;SDS011;41329;41.594;23.810;2023-09-19T09:00:06;5.45;;;5.07;;
55465;SDS011;41329;41.594;23.810;2023-09-19T09:02:37;6.10;;;5.72;;
55465;SDS011;41329;41.594;23.810;2023-09-19T09:05:08;5.85;;;5.45;;
55465;SDS011;41329;41.594;23.810;2023-09-19T09:07:40;5.35;;;5.00;;
55465;SDS011;41329;41.594;23.810;2023-09-19T09:10:06;5.18;;;4.80;;
55465;SDS011;41329;41.594;23.810;2023-09-19T09:12:32;4.80;;;4.50;;
55465;SDS011;41329;41.594;23.810;2023-09-19T09:15:01;6.60;;;5.00;;
55465;SDS011;41329;41.594;23.810;2023-09-19T09:17:29;5.85;;;5.05;;
55465;SDS011;41329;41.594;23.810;2023-09-19T09:19:55;5.25;;;4.88;;
55465;SDS011;41329;41.594;23.810;2023-09-19T09:22:20;5.78;;;4.97;;
55465;SDS011;41329;41.594;23.810;2023-09-19T09:27:23;5.90;;;5.20;;
55465;SDS011;41329;41.594;23.810;2023-09-19T09:29:49;4.97;;;4.68;;
55465;SDS011;41329;41.594;23.810;2023-09-19T09:32:16;4.85;;;4.45;;
55465;SDS011;41329;41.594;23.810;2023-09-19T09:34:43;4.63;;;4.32;;
55465;SDS011;41329;41.594;23.810;2023-09-19T09:37:16;4.30;;;3.90;;
55465;SDS011;41329;41.594;23.810;2023-09-19T09:39:52;6.88;;;4.95;;
55465;SDS011;41329;41.594;23.810;2023-09-19T09:42:37;4.63;;;4.30;;
55465;SDS011;41329;41.594;23.810;2023-09-19T09:45:19;5.18;;;4.78;;
55465;SDS011;41329;41.594;23.810;2023-09-19T09:48:02;5.05;;;3.58;;
55465;SDS011;41329;41.594;23.810;2023-09-19T09:50:29;3.70;;;3.38;;
55465;SDS011;41329;41.594;23.810;2023-09-19T09:53:23;3.53;;;3.10;;
55465;SDS011;41329;41.594;23.810;2023-09-19T09:55:58;3.75;;;3.40;;
55465;SDS011;41329;41.594;23.810;2023-09-19T09:58:31;3.58;;;3.33;;
55465;SDS011;41329;41.594;23.810;2023-09-19T10:01:00;5.63;;;3.78;;
55465;SDS011;41329;41.594;23.810;2023-09-19T10:03:39;4.82;;;3.90;;
55465;SDS011;41329;41.594;23.810;2023-09-19T10:06:06;10.60;;;4.28;;
55465;SDS011;41329;41.594;23.810;2023-09-19T10:09:06;7.70;;;4.57;;
55465;SDS011;41329;41.594;23.810;2023-09-19T10:11:36;13.00;;;6.03;;
55465;SDS011;41329;41.594;23.810;2023-09-19T10:14:08;9.07;;;4.25;;
55465;SDS011;41329;41.594;23.810;2023-09-19T10:16:34;4.72;;;4.32;;
55465;SDS011;41329;41.594;23.810;2023-09-19T10:21:33;11.85;;;6.63;;
55465;SDS011;41329;41.594;23.810;2023-09-19T10:24:01;37.38;;;8.45;;
55465;SDS011;41329;41.594;23.810;2023-09-19T10:26:30;25.38;;;6.93;;
55465;SDS011;41329;41.594;23.810;2023-09-19T10:28:56;68.18;;;12.90;;
55465;SDS011;41329;41.594;23.810;2023-09-19T10:31:24;60.78;;;10.13;;
55465;SDS011;41329;41.594;23.810;2023-09-19T10:33:53;52.40;;;9.48;;
55465;SDS011;41329;41.594;23.810;2023-09-19T10:36:20;35.92;;;8.57;;
55465;SDS011;41329;41.594;23.810;2023-09-19T10:38:50;15.30;;;5.15;;
55465;SDS011;41329;41.594;23.810;2023-09-19T10:41:21;68.00;;;11.98;;
55465;SDS011;41329;41.594;23.810;2023-09-19T10:43:48;52.92;;;8.57;;
55465;SDS011;41329;41.594;23.810;2023-09-19T10:46:13;32.53;;;7.65;;
55465;SDS011;41329;41.594;23.810;2023-09-19T10:48:40;11.43;;;5.60;;
55465;SDS011;41329;41.594;23.810;2023-09-19T10:51:19;16.55;;;5.63;;
55465;SDS011;41329;41.594;23.810;2023-09-19T10:54:01;20.75;;;6.03;;
55465;SDS011;41329;41.594;23.810;2023-09-19T10:56:35;18.05;;;5.97;;
55465;SDS011;41329;41.594;23.810;2023-09-19T10:59:09;13.75;;;5.75;;
55465;SDS011;41329;41.594;23.810;2023-09-19T11:01:41;29.80;;;7.32;;
55465;SDS011;41329;41.594;23.810;2023-09-19T11:07:02;12.80;;;5.93;;
55465;SDS011;41329;41.594;23.810;2023-09-19T11:15:00;26.23;;;6.05;;
55465;SDS011;41329;41.594;23.810;2023-09-19T11:17:30;12.68;;;5.00;;
55465;SDS011;41329;41.594;23.810;2023-09-19T11:30:39;17.98;;;6.18;;
55465;SDS011;41329;41.594;23.810;2023-09-19T11:47:14;5.38;;;4.97;;
55465;SDS011;41329;41.594;23.810;2023-09-19T11:49:19;7.40;;;4.53;;
55465;SDS011;41329;41.594;23.810;2023-09-19T11:51:51;7.07;;;4.55;;
55465;SDS011;41329;41.594;23.810;2023-09-19T11:54:17;4.30;;;4.00;;
55465;SDS011;41329;41.594;23.810;2023-09-19T11:56:49;6.20;;;5.28;;
55465;SDS011;41329;41.594;23.810;2023-09-19T11:59:21;6.15;;;4.82;;
55465;SDS011;41329;41.594;23.810;2023-09-19T12:01:51;4.93;;;4.32;;
55465;SDS011;41329;41.594;23.810;2023-09-19T12:04:33;4.55;;;4.22;;
55465;SDS011;41329;41.594;23.810;2023-09-19T12:07:06;3.97;;;3.63;;
55465;SDS011;41329;41.594;23.810;2023-09-19T12:09:39;4.70;;;4.30;;
55465;SDS011;41329;41.594;23.810;2023-09-19T12:12:24;7.25;;;4.50;;
55465;SDS011;41329;41.594;23.810;2023-09-19T12:14:54;4.20;;;3.80;;
55465;SDS011;41329;41.594;23.810;2023-09-19T12:17:22;4.80;;;4.38;;
55465;SDS011;41329;41.594;23.810;2023-09-19T12:19:52;4.80;;;4.40;;
55465;SDS011;41329;41.594;23.810;2023-09-19T12:24:45;5.32;;;4.82;;
55465;SDS011;41329;41.594;23.810;2023-09-19T12:27:11;4.20;;;3.90;;
55465;SDS011;41329;41.594;23.810;2023-09-19T12:29:41;7.00;;;3.83;;
55465;SDS011;41329;41.594;23.810;2023-09-19T12:32:11;4.50;;;4.20;;
55465;SDS011;41329;41.594;23.810;2023-09-19T12:34:38;4.80;;;4.40;;
55465;SDS011;41329;41.594;23.810;2023-09-19T12:39:48;4.47;;;3.97;;
55465;SDS011;41329;41.594;23.810;2023-09-19T12:42:16;4.95;;;4.18;;
55465;SDS011;41329;41.594;23.810;2023-09-19T12:44:44;6.07;;;4.15;;
55465;SDS011;41329;41.594;23.810;2023-09-19T12:47:16;4.05;;;3.75;;
55465;SDS011;41329;41.594;23.810;2023-09-19T12:52:39;4.85;;;3.85;;
55465;SDS011;41329;41.594;23.810;2023-09-19T12:55:31;4.85;;;3.80;;
55465;SDS011;41329;41.594;23.810;2023-09-19T13:00:45;3.45;;;3.15;;
55465;SDS011;41329;41.594;23.810;2023-09-19T13:06:01;3.20;;;3.10;;
55465;SDS011;41329;41.594;23.810;2023-09-19T13:08:35;5.40;;;3.47;;
55465;SDS011;41329;41.594;23.810;2023-09-19T13:16:18;4.70;;;3.67;;
55465;SDS011;41329;41.594;23.810;2023-09-19T13:18:51;4.30;;;4.00;;
55465;SDS011;41329;41.594;23.810;2023-09-19T13:21:27;3.80;;;3.45;;
55465;SDS011;41329;41.594;23.810;2023-09-19T13:26:48;3.88;;;3.58;;
55465;SDS011;41329;41.594;23.810;2023-09-19T13:29:14;4.00;;;3.60;;
55465;SDS011;41329;41.594;23.810;2023-09-19T13:31:45;4.18;;;3.75;;
55465;SDS011;41329;41.594;23.810;2023-09-19T13:34:11;4.13;;;3.70;;
55465;SDS011;41329;41.594;23.810;2023-09-19T13:36:37;3.63;;;3.35;;
55465;SDS011;41329;41.594;23.810;2023-09-19T13:39:03;3.75;;;3.45;;
55465;SDS011;41329;41.594;23.810;2023-09-19T13:41:30;3.03;;;2.92;;
55465;SDS011;41329;41.594;23.810;2023-09-19T13:43:56;3.63;;;3.33;;
55465;SDS011;41329;41.594;23.810;2023-09-19T13:46:22;3.50;;;3.30;;
55465;SDS011;41329;41.594;23.810;2023-09-19T13:48:51;4.28;;;3.97;;
55465;SDS011;41329;41.594;23.810;2023-09-19T13:51:20;5.63;;;4.03;;
55465;SDS011;41329;41.594;23.810;2023-09-19T13:53:47;3.63;;;3.38;;
55465;SDS011;41329;41.594;23.810;2023-09-19T13:56:13;3.55;;;3.35;;
55465;SDS011;41329;41.594;23.810;2023-09-19T13:58:39;3.75;;;3.50;;
55465;SDS011;41329;41.594;23.810;2023-09-19T14:01:06;4.72;;;4.43;;
55465;SDS011;41329;41.594;23.810;2023-09-19T14:03:37;4.68;;;4.28;;
55465;SDS011;41329;41.594;23.810;2023-09-19T14:06:03;3.97;;;3.67;;
55465;SDS011;41329;41.594;23.810;2023-09-19T14:08:29;6.75;;;3.75;;
55465;SDS011;41329;41.594;23.810;2023-09-19T14:10:54;4.43;;;3.90;;
55465;SDS011;41329;41.594;23.810;2023-09-19T14:13:19;3.80;;;3.45;;
55465;SDS011;41329;41.594;23.810;2023-09-19T14:15:45;4.65;;;4.35;;
55465;SDS011;41329;41.594;23.810;2023-09-19T14:18:11;4.88;;;4.57;;
55465;SDS011;41329;41.594;23.810;2023-09-19T14:20:39;4.72;;;4.38;;
55465;SDS011;41329;41.594;23.810;2023-09-19T14:23:06;5.90;;;5.10;;
55465;SDS011;41329;41.594;23.810;2023-09-19T14:25:33;5.47;;;4.95;;
55465;SDS011;41329;41.594;23.810;2023-09-19T14:27:59;5.25;;;4.45;;
55465;SDS011;41329;41.594;23.810;2023-09-19T14:30:25;5.88;;;5.47;;
55465;SDS011;41329;41.594;23.810;2023-09-19T14:32:50;5.90;;;5.50;;
55465;SDS011;41329;41.594;23.810;2023-09-19T14:35:16;5.75;;;5.32;;
55465;SDS011;41329;41.594;23.810;2023-09-19T14:37:41;6.82;;;5.40;;
55465;SDS011;41329;41.594;23.810;2023-09-19T14:40:07;6.13;;;5.38;;
55465;SDS011;41329;41.594;23.810;2023-09-19T14:42:38;6.03;;;5.53;;
55465;SDS011;41329;41.594;23.810;2023-09-19T14:45:04;5.97;;;5.45;;
55465;SDS011;41329;41.594;23.810;2023-09-19T14:47:30;10.18;;;7.05;;
55465;SDS011;41329;41.594;23.810;2023-09-19T14:50:02;6.40;;;5.18;;
55465;SDS011;41329;41.594;23.810;2023-09-19T14:52:31;6.50;;;4.60;;
55465;SDS011;41329;41.594;23.810;2023-09-19T14:54:57;5.18;;;3.50;;
55465;SDS011;41329;41.594;23.810;2023-09-19T14:57:23;4.53;;;3.70;;
55465;SDS011;41329;41.594;23.810;2023-09-19T14:59:49;4.82;;;3.72;;
55465;SDS011;41329;41.594;23.810;2023-09-19T15:02:15;4.57;;;4.28;;
55465;SDS011;41329;41.594;23.810;2023-09-19T15:04:42;4.88;;;4.53;;
55465;SDS011;41329;41.594;23.810;2023-09-19T15:09:37;4.45;;;4.05;;
55465;SDS011;41329;41.594;23.810;2023-09-19T15:12:03;5.43;;;4.10;;
55465;SDS011;41329;41.594;23.810;2023-09-19T15:14:29;4.63;;;4.18;;
55465;SDS011;41329;41.594;23.810;2023-09-19T15:16:57;4.28;;;3.97;;
55465;SDS011;41329;41.594;23.810;2023-09-19T15:19:22;6.45;;;4.82;;
55465;SDS011;41329;41.594;23.810;2023-09-19T15:21:48;4.85;;;4.40;;
55465;SDS011;41329;41.594;23.810;2023-09-19T15:24:14;4.20;;;3.88;;
55465;SDS011;41329;41.594;23.810;2023-09-19T15:26:40;4.43;;;4.13;;
55465;SDS011;41329;41.594;23.810;2023-09-19T15:29:08;4.53;;;3.78;;
55465;SDS011;41329;41.594;23.810;2023-09-19T15:31:35;5.78;;;3.67;;
55465;SDS011;41329;41.594;23.810;2023-09-19T15:34:01;4.80;;;3.92;;
55465;SDS011;41329;41.594;23.810;2023-09-19T15:36:27;4.80;;;4.50;;
55465;SDS011;41329;41.594;23.810;2023-09-19T15:41:26;5.63;;;4.68;;
55465;SDS011;41329;41.594;23.810;2023-09-19T15:43:53;4.75;;;4.40;;
55465;SDS011;41329;41.594;23.810;2023-09-19T15:46:19;5.22;;;4.85;;
55465;SDS011;41329;41.594;23.810;2023-09-19T15:48:45;5.10;;;4.63;;
55465;SDS011;41329;41.594;23.810;2023-09-19T15:51:11;6.43;;;4.78;;
55465;SDS011;41329;41.594;23.810;2023-09-19T15:53:44;5.18;;;4.78;;
55465;SDS011;41329;41.594;23.810;2023-09-19T15:56:14;6.93;;;3.75;;
55465;SDS011;41329;41.594;23.810;2023-09-19T15:58:42;4.22;;;3.88;;
55465;SDS011;41329;41.594;23.810;2023-09-19T16:01:09;4.25;;;3.92;;
55465;SDS011;41329;41.594;23.810;2023-09-19T16:03:35;4.65;;;4.13;;
55465;SDS011;41329;41.594;23.810;2023-09-19T16:06:07;4.47;;;3.97;;
55465;SDS011;41329;41.594;23.810;2023-09-19T16:08:34;6.25;;;4.90;;
55465;SDS011;41329;41.594;23.810;2023-09-19T16:11:00;5.30;;;4.90;;
55465;SDS011;41329;41.594;23.810;2023-09-19T16:13:26;5.40;;;5.10;;
55465;SDS011;41329;41.594;23.810;2023-09-19T16:15:53;5.32;;;4.93;;
55465;SDS011;41329;41.594;23.810;2023-09-19T16:18:19;4.75;;;4.18;;
55465;SDS011;41329;41.594;23.810;2023-09-19T16:20:44;8.30;;;4.70;;
55465;SDS011;41329;41.594;23.810;2023-09-19T16:23:10;4.72;;;4.13;;
55465;SDS011;41329;41.594;23.810;2023-09-19T16:25:36;5.80;;;4.78;;
55465;SDS011;41329;41.594;23.810;2023-09-19T16:28:01;8.48;;;4.47;;
55465;SDS011;41329;41.594;23.810;2023-09-19T16:30:27;4.88;;;4.20;;
55465;SDS011;41329;41.594;23.810;2023-09-19T16:32:53;4.65;;;4.32;;
55465;SDS011;41329;41.594;23.810;2023-09-19T16:35:19;6.22;;;4.50;;
55465;SDS011;41329;41.594;23.810;2023-09-19T16:37:45;5.30;;;4.75;;
55465;SDS011;41329;41.594;23.810;2023-09-19T16:40:11;5.13;;;4.68;;
55465;SDS011;41329;41.594;23.810;2023-09-19T16:42:37;6.25;;;4.65;;
55465;SDS011;41329;41.594;23.810;2023-09-19T16:45:03;7.75;;;4.82;;
55465;SDS011;41329;41.594;23.810;2023-09-19T16:47:29;4.93;;;4.63;;
55465;SDS011;41329;41.594;23.810;2023-09-19T16:49:54;4.90;;;4.60;;
55465;SDS011;41329;41.594;23.810;2023-09-19T16:52:20;5.95;;;5.45;;
55465;SDS011;41329;41.594;23.810;2023-09-19T16:54:46;7.70;;;5.35;;
55465;SDS011;41329;41.594;23.810;2023-09-19T16:57:11;6.05;;;5.47;;